createdAt,value
2023-03-18T00:00:49.891Z,16.90
2023-03-18T00:03:17.519Z,17.98
2023-03-18T00:05:44.766Z,17.48
2023-03-18T00:08:12.188Z,19.65
2023-03-18T00:10:39.716Z,21.65
2023-03-18T00:13:06.705Z,14.32
2023-03-18T00:15:33.628Z,17.58
2023-03-18T00:18:01.504Z,16.80
2023-03-18T00:20:41.745Z,17.27
2023-03-18T00:23:08.873Z,20.77
2023-03-18T00:25:36.989Z,16.65
2023-03-18T00:28:06.529Z,19.27
2023-03-18T00:30:34.901Z,16.95
2023-03-18T00:33:01.898Z,16.08
2023-03-18T00:35:30.636Z,18.25
2023-03-18T00:37:58.810Z,16.90
2023-03-18T00:40:30.980Z,17.58
2023-03-18T00:43:07.834Z,21.30
2023-03-18T00:45:38.097Z,23.88
2023-03-18T00:48:05.216Z,17.55
2023-03-18T00:50:32.454Z,15.57
2023-03-18T00:52:59.610Z,18.30
2023-03-18T00:55:27.433Z,16.92
2023-03-18T00:57:54.768Z,16.50
2023-03-18T01:00:22.066Z,16.95
2023-03-18T01:02:49.381Z,21.55
2023-03-18T01:05:16.597Z,19.98
2023-03-18T01:07:43.833Z,17.27
2023-03-18T01:10:13.015Z,16.13
2023-03-18T01:12:42.042Z,21.25
2023-03-18T01:15:12.734Z,17.60
2023-03-18T01:17:39.708Z,21.25
2023-03-18T01:20:06.940Z,21.73
2023-03-18T01:22:33.778Z,18.20
2023-03-18T01:25:00.864Z,17.65
2023-03-18T01:27:34.555Z,17.55
2023-03-18T01:30:01.445Z,15.18
2023-03-18T01:32:28.958Z,18.58
2023-03-18T01:34:57.092Z,19.48
2023-03-18T01:37:25.330Z,17.95
2023-03-18T01:40:02.661Z,18.25
2023-03-18T01:42:29.472Z,17.42
2023-03-18T01:45:18.102Z,19.60
2023-03-18T01:47:46.740Z,15.07
2023-03-18T01:50:44.770Z,21.20
2023-03-18T01:53:15.408Z,20.67
2023-03-18T01:55:43.691Z,15.70
2023-03-18T01:58:34.272Z,17.05
2023-03-18T02:03:30.199Z,18.60
2023-03-18T02:05:57.459Z,20.15
2023-03-18T02:08:25.695Z,21.75
2023-03-18T02:10:53.528Z,20.88
2023-03-18T02:13:20.517Z,23.98
2023-03-18T02:15:55.191Z,18.48
2023-03-18T02:18:36.701Z,24.85
2023-03-18T02:21:14.131Z,22.80
2023-03-18T02:23:56.816Z,22.95
2023-03-18T02:26:38.372Z,22.65
2023-03-18T02:29:07.785Z,21.70
2023-03-18T02:31:45.134Z,22.20
2023-03-18T02:34:13.475Z,22.70
2023-03-18T02:36:42.013Z,21.40
2023-03-18T02:39:15.379Z,23.25
2023-03-18T02:41:44.797Z,27.65
2023-03-18T02:44:12.730Z,30.27
2023-03-18T02:47:06.184Z,23.65
2023-03-18T02:49:33.574Z,21.70
2023-03-18T02:52:01.306Z,20.48
2023-03-18T02:54:30.826Z,18.70
2023-03-18T02:56:58.374Z,25.58
2023-03-18T02:59:25.998Z,20.05
2023-03-18T03:01:54.092Z,22.02
2023-03-18T03:04:23.732Z,23.42
2023-03-18T03:06:52.350Z,23.38
2023-03-18T03:09:29.166Z,21.85
2023-03-18T03:11:56.195Z,19.95
2023-03-18T03:14:25.130Z,26.15
2023-03-18T03:16:56.797Z,19.98
2023-03-18T03:19:23.898Z,29.90
2023-03-18T03:21:50.720Z,24.75
2023-03-18T03:24:17.640Z,22.38
2023-03-18T03:26:44.710Z,31.33
2023-03-18T03:29:12.921Z,22.08
2023-03-18T03:31:39.788Z,27.23
2023-03-18T03:34:07.147Z,25.95
2023-03-18T03:36:35.402Z,24.67
2023-03-18T03:39:02.374Z,21.67
2023-03-18T03:41:29.188Z,25.15
2023-03-18T03:43:55.974Z,22.88
2023-03-18T03:46:23.005Z,29.52
2023-03-18T03:48:50.359Z,26.75
2023-03-18T03:51:17.344Z,21.73
2023-03-18T03:53:46.251Z,24.92
2023-03-18T03:56:14.017Z,28.13
2023-03-18T03:58:40.892Z,24.77
2023-03-18T04:01:08.648Z,21.38
2023-03-18T04:03:35.534Z,24.25
2023-03-18T04:06:06.712Z,21.38
2023-03-18T04:08:38.117Z,20.25
2023-03-18T04:11:05.551Z,20.55
2023-03-18T04:13:33.010Z,23.00
2023-03-18T04:16:00.291Z,22.80
2023-03-18T04:18:27.231Z,21.55
2023-03-18T04:20:54.266Z,23.83
2023-03-18T04:23:35.777Z,23.92
2023-03-18T04:26:03.146Z,26.95
2023-03-18T04:28:30.248Z,25.48
2023-03-18T04:30:57.390Z,20.60
2023-03-18T04:33:24.507Z,21.05
2023-03-18T04:35:52.641Z,22.40
2023-03-18T04:38:20.531Z,24.45
2023-03-18T04:40:50.678Z,23.20
2023-03-18T04:43:17.980Z,25.60
2023-03-18T04:45:46.478Z,25.30
2023-03-18T04:48:14.556Z,23.52
2023-03-18T04:50:43.543Z,23.10
2023-03-18T04:53:14.728Z,22.88
2023-03-18T04:55:44.086Z,23.75
2023-03-18T04:58:13.087Z,21.70
2023-03-18T05:00:46.325Z,18.52
2023-03-18T05:03:21.198Z,25.27
2023-03-18T05:05:49.514Z,21.85
2023-03-18T05:08:20.578Z,24.95
2023-03-18T05:10:50.147Z,25.13
2023-03-18T05:13:17.597Z,24.85
2023-03-18T05:15:45.263Z,23.38
2023-03-18T05:18:12.826Z,27.35
2023-03-18T05:20:40.738Z,26.85
2023-03-18T05:23:08.668Z,27.85
2023-03-18T05:25:43.174Z,19.27
2023-03-18T05:28:11.396Z,43.42
2023-03-18T05:30:58.393Z,27.45
2023-03-18T05:33:25.913Z,23.67
2023-03-18T05:35:55.130Z,23.23
2023-03-18T05:38:27.527Z,28.13
2023-03-18T05:40:55.374Z,32.72
2023-03-18T05:43:29.437Z,21.88
2023-03-18T05:45:58.431Z,25.33
2023-03-18T05:48:45.070Z,19.33
2023-03-18T05:51:12.659Z,20.65
2023-03-18T05:53:39.597Z,24.17
2023-03-18T05:56:20.315Z,25.90
2023-03-18T05:58:52.044Z,17.95
2023-03-18T06:01:42.149Z,24.50
2023-03-18T06:04:10.233Z,19.98
2023-03-18T06:06:40.441Z,24.05
2023-03-18T06:11:35.590Z,22.77
2023-03-18T06:14:04.609Z,24.90
2023-03-18T06:16:32.905Z,25.17
2023-03-18T06:18:59.873Z,19.92
2023-03-18T06:21:27.258Z,19.98
2023-03-18T06:23:54.818Z,22.48
2023-03-18T06:26:22.583Z,23.45
2023-03-18T06:28:49.940Z,22.20
2023-03-18T06:31:17.861Z,19.02
2023-03-18T06:33:46.322Z,19.23
2023-03-18T06:36:16.751Z,25.80
2023-03-18T06:38:49.556Z,23.88
2023-03-18T06:41:17.462Z,20.85
2023-03-18T06:43:58.538Z,21.52
2023-03-18T06:46:26.543Z,23.27
2023-03-18T06:48:54.513Z,21.50
2023-03-18T06:51:25.410Z,17.75
2023-03-18T06:53:52.412Z,28.40
2023-03-18T06:56:19.467Z,23.30
2023-03-18T06:59:02.597Z,25.55
2023-03-18T07:01:30.537Z,26.17
2023-03-18T07:03:59.028Z,25.33
2023-03-18T07:06:30.703Z,20.50
2023-03-18T07:08:58.833Z,19.27
2023-03-18T07:11:26.702Z,19.48
2023-03-18T07:13:54.045Z,19.95
2023-03-18T07:16:28.410Z,25.90
2023-03-18T07:18:58.242Z,17.90
2023-03-18T07:21:26.031Z,19.63
2023-03-18T07:23:55.477Z,18.95
2023-03-18T07:26:24.380Z,17.92
2023-03-18T07:28:51.896Z,14.57
2023-03-18T07:31:18.824Z,20.85
2023-03-18T07:33:46.930Z,30.88
2023-03-18T07:36:14.225Z,21.63
2023-03-18T07:38:41.250Z,18.67
2023-03-18T07:41:08.518Z,17.15
2023-03-18T07:43:36.923Z,18.35
2023-03-18T07:46:04.591Z,41.33
2023-03-18T07:48:31.703Z,21.35
2023-03-18T07:50:59.506Z,22.27
2023-03-18T07:53:27.634Z,19.98
2023-03-18T07:55:54.720Z,21.92
2023-03-18T07:58:21.531Z,15.68
2023-03-18T08:00:49.547Z,23.52
2023-03-18T08:03:16.813Z,13.30
2023-03-18T08:05:43.641Z,18.30
2023-03-18T08:08:11.076Z,19.05
2023-03-18T08:10:37.967Z,21.92
2023-03-18T08:13:04.890Z,21.02
2023-03-18T08:15:31.978Z,19.52
2023-03-18T08:17:59.227Z,26.25
2023-03-18T08:20:27.274Z,20.73
2023-03-18T08:22:54.173Z,19.33
2023-03-18T08:25:23.061Z,22.60
2023-03-18T08:27:52.369Z,15.10
2023-03-18T08:30:19.408Z,17.83
2023-03-18T08:32:46.580Z,19.67
2023-03-18T08:35:13.524Z,18.05
2023-03-18T08:37:40.518Z,21.20
2023-03-18T08:40:09.801Z,21.92
2023-03-18T08:42:36.634Z,19.25
2023-03-18T08:45:04.835Z,15.48
2023-03-18T08:47:31.731Z,19.88
2023-03-18T08:49:58.761Z,20.10
2023-03-18T08:52:25.754Z,16.63
2023-03-18T08:54:52.796Z,20.70
2023-03-18T08:57:19.641Z,21.90
2023-03-18T08:59:46.658Z,15.13
2023-03-18T09:02:16.963Z,19.83
2023-03-18T09:04:44.649Z,18.95
2023-03-18T09:07:13.243Z,16.63
2023-03-18T09:09:43.892Z,18.63
2023-03-18T09:12:14.879Z,17.67
2023-03-18T09:17:09.555Z,21.98
2023-03-18T09:19:37.466Z,18.02
2023-03-18T09:22:04.374Z,16.52
2023-03-18T09:24:31.701Z,20.40
2023-03-18T09:26:59.928Z,16.35
2023-03-18T09:29:27.672Z,17.50
2023-03-18T09:31:55.756Z,23.55
2023-03-18T09:34:22.767Z,18.08
2023-03-18T09:36:51.640Z,16.85
2023-03-18T09:39:22.004Z,25.52
2023-03-18T09:42:10.792Z,20.80
2023-03-18T09:44:38.810Z,22.88
2023-03-18T09:47:08.760Z,21.20
2023-03-18T09:50:04.375Z,19.48
2023-03-18T09:52:51.496Z,21.23
2023-03-18T09:55:30.540Z,21.02
2023-03-18T09:58:03.147Z,20.08
2023-03-18T10:00:32.185Z,22.67
2023-03-18T10:03:02.951Z,19.85
2023-03-18T10:05:50.076Z,19.98
2023-03-18T10:08:46.446Z,23.40
2023-03-18T10:11:38.019Z,22.58
2023-03-18T10:14:18.458Z,16.23
2023-03-18T10:19:33.698Z,20.42
2023-03-18T10:22:31.368Z,22.17
2023-03-18T10:25:36.183Z,18.50
2023-03-18T10:28:17.913Z,23.42
2023-03-18T10:31:00.260Z,18.30
2023-03-18T10:33:35.716Z,26.67
2023-03-18T10:36:12.416Z,20.88
2023-03-18T10:38:46.753Z,19.00
2023-03-18T10:41:29.096Z,20.27
2023-03-18T10:43:57.505Z,20.67
2023-03-18T10:46:25.869Z,19.83
2023-03-18T10:48:57.303Z,20.85
2023-03-18T10:51:35.714Z,21.60
2023-03-18T10:54:15.807Z,21.15
2023-03-18T10:56:43.233Z,23.35
2023-03-18T10:59:22.566Z,23.45
2023-03-18T11:02:01.898Z,23.27
2023-03-18T11:04:32.474Z,23.08
2023-03-18T11:07:03.772Z,24.45
2023-03-18T11:09:36.481Z,17.52
2023-03-18T11:12:19.004Z,27.95
2023-03-18T11:14:50.523Z,23.27
2023-03-18T11:17:49.450Z,21.02
2023-03-18T11:20:24.665Z,34.47
2023-03-18T11:22:55.490Z,25.27
2023-03-18T11:25:26.664Z,19.70
2023-03-18T11:27:58.498Z,25.65
2023-03-18T11:30:34.933Z,21.15
2023-03-18T11:33:07.235Z,22.52
2023-03-18T11:35:45.543Z,22.05
2023-03-18T11:38:21.003Z,21.67
2023-03-18T11:40:47.987Z,27.58
2023-03-18T11:43:19.558Z,19.85
2023-03-18T11:45:53.352Z,21.77
2023-03-18T11:48:38.099Z,24.02
2023-03-18T11:51:29.312Z,21.05
2023-03-18T11:54:14.249Z,21.95
2023-03-18T11:57:00.447Z,22.30
2023-03-18T11:59:36.592Z,25.77
2023-03-18T12:02:21.021Z,26.83
2023-03-18T12:05:28.894Z,32.75
2023-03-18T12:08:22.825Z,19.85
2023-03-18T12:11:09.684Z,26.90
2023-03-18T12:13:37.598Z,25.23
2023-03-18T12:16:17.476Z,28.08
2023-03-18T12:19:07.219Z,22.08
2023-03-18T12:21:51.824Z,17.58
2023-03-18T12:24:27.865Z,32.90
2023-03-18T12:27:10.742Z,23.65
2023-03-18T12:29:59.270Z,27.05
2023-03-18T12:32:37.992Z,29.48
2023-03-18T12:35:30.019Z,25.85
2023-03-18T12:38:45.912Z,29.00
2023-03-18T12:41:41.044Z,24.65
2023-03-18T12:44:22.944Z,22.42
2023-03-18T12:47:16.848Z,22.13
2023-03-18T12:50:06.706Z,23.23
2023-03-18T12:52:41.318Z,26.05
2023-03-18T12:55:16.690Z,24.63
2023-03-18T12:58:03.217Z,21.73
2023-03-18T13:00:34.900Z,23.15
2023-03-18T13:03:26.254Z,20.48
2023-03-18T13:05:58.502Z,27.63
2023-03-18T13:08:28.321Z,27.05
2023-03-18T13:11:12.229Z,31.02
2023-03-18T13:13:44.076Z,22.50
2023-03-18T13:16:13.793Z,25.90
2023-03-18T13:18:48.523Z,19.92
2023-03-18T13:21:21.209Z,32.55
2023-03-18T13:24:04.051Z,33.33
2023-03-18T13:26:58.515Z,23.88
2023-03-18T13:29:37.981Z,23.00
2023-03-18T13:32:26.607Z,25.13
2023-03-18T13:35:25.892Z,28.63
2023-03-18T13:38:17.380Z,25.85
2023-03-18T13:40:56.182Z,27.13
2023-03-18T13:43:25.617Z,24.92
2023-03-18T13:45:54.982Z,28.05
2023-03-18T13:48:29.744Z,26.17
2023-03-18T13:50:58.925Z,26.58
2023-03-18T13:53:31.814Z,27.00
2023-03-18T13:55:58.570Z,30.20
2023-03-18T13:58:33.928Z,24.63
2023-03-18T14:01:00.656Z,27.67
2023-03-18T14:03:29.976Z,27.98
2023-03-18T14:06:09.210Z,27.20
2023-03-18T14:08:38.840Z,23.30
2023-03-18T14:11:28.718Z,26.75
2023-03-18T14:14:00.563Z,30.00
2023-03-18T14:16:28.284Z,27.90
2023-03-18T14:19:02.178Z,27.83
2023-03-18T14:21:32.094Z,29.50
2023-03-18T14:24:24.246Z,30.17
2023-03-18T14:27:04.420Z,29.35
2023-03-18T14:29:37.190Z,26.95
2023-03-18T14:32:08.493Z,27.77
2023-03-18T14:34:54.348Z,26.05
2023-03-18T14:37:32.643Z,29.05
2023-03-18T14:40:14.757Z,25.23
2023-03-18T14:43:01.936Z,26.95
2023-03-18T14:45:35.830Z,31.55
2023-03-18T14:48:20.607Z,29.08
2023-03-18T14:50:52.623Z,25.98
2023-03-18T14:53:34.539Z,29.85
2023-03-18T14:56:03.799Z,29.45
2023-03-18T14:58:33.476Z,32.28
2023-03-18T15:01:09.856Z,29.90
2023-03-18T15:03:40.111Z,36.58
2023-03-18T15:06:08.004Z,30.13
2023-03-18T15:08:47.680Z,29.65
2023-03-18T15:11:16.530Z,32.38
2023-03-18T15:13:44.639Z,28.90
2023-03-18T15:16:15.339Z,35.15
2023-03-18T15:18:43.648Z,26.45
2023-03-18T15:21:19.856Z,32.22
2023-03-18T15:23:55.660Z,33.50
2023-03-18T15:26:33.905Z,28.73
2023-03-18T15:29:15.824Z,32.10
2023-03-18T15:31:45.879Z,38.58
2023-03-18T15:34:20.975Z,27.05
2023-03-18T15:36:56.679Z,30.50
2023-03-18T15:39:33.472Z,35.30
2023-03-18T15:42:01.888Z,29.15
2023-03-18T15:44:39.323Z,30.70
2023-03-18T15:47:16.679Z,30.50
2023-03-18T15:50:19.463Z,30.52
2023-03-18T15:52:47.862Z,32.53
2023-03-18T15:55:47.307Z,35.10
2023-03-18T15:58:26.994Z,35.15
2023-03-18T16:00:56.484Z,33.33
2023-03-18T16:03:29.192Z,35.37
2023-03-18T16:05:56.665Z,32.05
2023-03-18T16:08:24.057Z,30.95
2023-03-18T16:10:54.830Z,38.55
2023-03-18T16:13:26.336Z,38.25
2023-03-18T16:15:54.018Z,27.63
2023-03-18T16:18:21.730Z,30.50
2023-03-18T16:20:50.389Z,30.98
2023-03-18T16:23:18.711Z,36.67
2023-03-18T16:25:48.168Z,33.45
2023-03-18T16:28:26.403Z,30.17
2023-03-18T16:30:55.988Z,30.70
2023-03-18T16:33:24.220Z,31.95
2023-03-18T16:35:59.591Z,29.33
2023-03-18T16:38:28.543Z,31.35
2023-03-18T16:40:56.031Z,31.17
2023-03-18T16:43:28.222Z,27.20
2023-03-18T16:45:59.588Z,31.77
2023-03-18T16:48:27.040Z,32.30
2023-03-18T16:50:55.942Z,31.00
2023-03-18T16:53:29.621Z,33.35
2023-03-18T16:56:14.045Z,29.88
2023-03-18T16:58:42.042Z,31.65
2023-03-18T17:01:12.081Z,31.55
2023-03-18T17:03:38.957Z,28.27
2023-03-18T17:06:06.863Z,28.75
2023-03-18T17:08:34.492Z,32.65
2023-03-18T17:11:03.403Z,26.35
2023-03-18T17:13:33.178Z,34.63
2023-03-18T17:16:00.087Z,30.67
2023-03-18T17:18:27.923Z,34.50
2023-03-18T17:20:55.084Z,32.17
2023-03-18T17:23:27.675Z,28.45
2023-03-18T17:25:59.155Z,27.20
2023-03-18T17:28:37.091Z,31.08
2023-03-18T17:31:04.952Z,29.55
2023-03-18T17:33:35.571Z,30.60
2023-03-18T17:36:03.310Z,27.08
2023-03-18T17:38:35.025Z,35.47
2023-03-18T17:41:13.325Z,28.00
2023-03-18T17:43:40.280Z,31.38
2023-03-18T17:46:07.413Z,31.65
2023-03-18T17:48:36.668Z,31.08
2023-03-18T17:51:18.776Z,25.77
2023-03-18T17:53:48.247Z,27.00
2023-03-18T17:56:18.395Z,34.30
2023-03-18T17:58:47.681Z,28.73
2023-03-18T18:01:30.115Z,28.05
2023-03-18T18:03:59.639Z,30.55
2023-03-18T18:06:31.156Z,35.40
2023-03-18T18:09:00.458Z,27.75
2023-03-18T18:11:31.919Z,28.98
2023-03-18T18:14:10.909Z,37.55
2023-03-18T18:16:37.738Z,31.70
2023-03-18T18:19:04.494Z,37.47
2023-03-18T18:21:31.400Z,33.55
2023-03-18T18:23:58.307Z,38.83
2023-03-18T18:26:25.201Z,28.13
2023-03-18T18:28:52.692Z,28.55
2023-03-18T18:31:21.371Z,26.55
2023-03-18T18:33:50.397Z,23.42
2023-03-18T18:36:18.525Z,26.50
2023-03-18T18:38:45.722Z,32.40
2023-03-18T18:41:12.666Z,27.52
2023-03-18T18:43:39.529Z,32.08
2023-03-18T18:46:13.786Z,38.05
2023-03-18T18:48:40.952Z,33.20
2023-03-18T18:51:16.901Z,29.65
2023-03-18T18:53:44.046Z,29.33
2023-03-18T18:56:35.246Z,26.20
2023-03-18T18:59:06.242Z,32.45
2023-03-18T19:01:33.046Z,34.08
2023-03-18T19:03:59.898Z,34.17
2023-03-18T19:06:29.273Z,33.17
2023-03-18T19:08:58.006Z,33.28
2023-03-18T19:11:25.991Z,29.50
2023-03-18T19:13:53.250Z,29.85
2023-03-18T19:16:30.758Z,28.45
2023-03-18T19:18:57.713Z,28.98
2023-03-18T19:21:24.765Z,28.33
2023-03-18T19:23:51.814Z,26.65
2023-03-18T19:26:19.463Z,34.17
2023-03-18T19:28:57.117Z,35.55
2023-03-18T19:31:26.922Z,33.33
2023-03-18T19:33:54.296Z,35.60
2023-03-18T19:36:30.294Z,30.95
2023-03-18T19:39:02.023Z,33.85
2023-03-18T19:41:29.660Z,32.83
2023-03-18T19:44:05.242Z,30.85
2023-03-18T19:46:38.785Z,33.05
2023-03-18T19:49:27.139Z,33.90
2023-03-18T19:51:55.191Z,25.88
2023-03-18T19:54:36.676Z,33.08
2023-03-18T19:57:06.837Z,32.92
2023-03-18T19:59:39.145Z,31.98
2023-03-18T20:02:27.712Z,27.60
2023-03-18T20:04:56.794Z,31.73
2023-03-18T20:07:26.428Z,35.58
2023-03-18T20:09:54.689Z,34.72
2023-03-18T20:12:37.657Z,31.55
2023-03-18T20:15:06.405Z,33.67
2023-03-18T20:17:41.564Z,29.75
2023-03-18T20:20:19.626Z,35.47
2023-03-18T20:22:51.837Z,31.55
2023-03-18T20:25:37.349Z,34.42
2023-03-18T20:28:05.192Z,32.47
2023-03-18T20:30:37.760Z,32.92
2023-03-18T20:33:05.390Z,40.90
2023-03-18T20:35:35.452Z,31.33
2023-03-18T20:38:22.550Z,42.45
2023-03-18T20:40:49.568Z,35.25
2023-03-18T20:43:18.049Z,34.67
2023-03-18T20:45:44.951Z,30.13
2023-03-18T20:48:12.577Z,32.15
2023-03-18T20:50:39.801Z,34.55
2023-03-18T20:53:16.023Z,30.85
2023-03-18T20:55:43.061Z,36.22
2023-03-18T20:58:36.142Z,31.13
2023-03-18T21:01:03.736Z,28.10
2023-03-18T21:03:33.484Z,36.25
2023-03-18T21:06:03.585Z,31.73
2023-03-18T21:08:32.140Z,32.28
2023-03-18T21:11:01.877Z,30.40
2023-03-18T21:13:36.235Z,29.85
2023-03-18T21:16:05.126Z,34.03
2023-03-18T21:18:32.501Z,38.40
2023-03-18T21:20:59.451Z,34.38
2023-03-18T21:23:34.379Z,30.30
2023-03-18T21:26:01.880Z,32.42
2023-03-18T21:28:30.120Z,36.78
2023-03-18T21:30:58.440Z,36.38
2023-03-18T21:33:31.340Z,44.63
2023-03-18T21:35:59.087Z,45.20
2023-03-18T21:38:30.667Z,29.17
2023-03-18T21:40:58.816Z,31.10
2023-03-18T21:43:31.768Z,32.97
2023-03-18T21:45:59.048Z,35.53
2023-03-18T21:48:26.095Z,33.63
2023-03-18T21:50:54.099Z,35.10
2023-03-18T21:53:22.758Z,31.63
2023-03-18T21:55:50.695Z,35.10
2023-03-18T21:58:23.229Z,36.65
2023-03-18T22:00:58.762Z,33.65
2023-03-18T22:03:28.539Z,40.35
2023-03-18T22:05:56.387Z,41.92
2023-03-18T22:08:23.678Z,43.88
2023-03-18T22:10:52.057Z,36.58
2023-03-18T22:13:21.536Z,30.45
2023-03-18T22:15:53.271Z,36.57
2023-03-18T22:18:20.930Z,40.30
2023-03-18T22:20:49.666Z,36.03
2023-03-18T22:23:21.592Z,37.22
2023-03-18T22:25:53.932Z,38.90
2023-03-18T22:28:21.583Z,41.35
2023-03-18T22:30:55.020Z,42.03
2023-03-18T22:33:28.432Z,42.92
2023-03-18T22:35:55.898Z,42.33
2023-03-18T22:38:24.173Z,41.28
2023-03-18T22:40:53.300Z,49.10
2023-03-18T22:43:30.336Z,52.47
2023-03-18T22:45:58.575Z,54.22
2023-03-18T22:48:26.001Z,58.28
2023-03-18T22:50:53.776Z,53.45
2023-03-18T22:53:27.983Z,67.78
2023-03-18T22:55:56.470Z,61.22
2023-03-18T22:58:28.183Z,63.90
2023-03-18T23:00:55.945Z,64.97
2023-03-18T23:03:29.411Z,64.13
2023-03-18T23:05:57.833Z,60.60
2023-03-18T23:08:25.149Z,60.83
2023-03-18T23:10:53.560Z,68.28
2023-03-18T23:13:29.506Z,67.53
2023-03-18T23:15:58.339Z,71.40
2023-03-18T23:18:25.643Z,69.45
2023-03-18T23:20:52.521Z,75.45
2023-03-18T23:23:21.566Z,93.82
2023-03-18T23:25:50.253Z,78.18
2023-03-18T23:28:17.734Z,78.90
2023-03-18T23:30:48.641Z,79.35
2023-03-18T23:33:16.860Z,85.43
2023-03-18T23:35:44.376Z,101.47
2023-03-18T23:38:11.726Z,77.05
2023-03-18T23:40:38.591Z,77.07
2023-03-18T23:43:06.587Z,86.18
2023-03-18T23:45:33.680Z,90.03
2023-03-18T23:48:01.005Z,82.32
2023-03-18T23:50:27.886Z,84.45
2023-03-18T23:52:54.829Z,98.50
2023-03-18T23:55:34.132Z,94.75
2023-03-18T23:58:01.861Z,84.38
